Time;durP1;ratioP1;P1;durP2;ratioP2;P2;SDS_P1;SDS_P2;PMS_P1;PMS_P2;Temp;Humidity;BMP_temperature;BMP_pressure;BME280_temperature;BME280_humidity;BME280_pressure;Samples;Min_cycle;Max_cycle;Signal;HPM_P1;HPM_P2
2023/01/30 00:00:25;;;;;;;19.50;7.97;;;6.70;99.90;;;;;;5092714;28;20377;-75
2023/01/30 00:02:50;;;;;;;16.33;6.53;;;6.60;99.90;;;;;;5093497;28;20086;-75
2023/01/30 00:05:16;;;;;;;18.03;6.60;;;6.70;99.90;;;;;;5093657;28;20050;-75
2023/01/30 00:07:42;;;;;;;19.67;7.63;;;6.70;99.90;;;;;;5093042;28;20048;-74
2023/01/30 00:10:08;;;;;;;16.20;6.27;;;6.70;99.90;;;;;;5093794;28;20167;-75
2023/01/30 00:12:34;;;;;;;15.90;6.70;;;6.70;99.90;;;;;;5093591;28;20493;-75
2023/01/30 00:15:00;;;;;;;17.03;6.27;;;6.70;99.90;;;;;;5093227;28;20122;-75
2023/01/30 00:17:25;;;;;;;20.97;6.80;;;6.70;99.90;;;;;;5093500;28;20040;-74
2023/01/30 00:19:51;;;;;;;19.83;7.30;;;6.80;99.90;;;;;;5093114;28;20043;-74
2023/01/30 00:22:17;;;;;;;16.00;6.40;;;6.80;99.90;;;;;;5093431;28;20052;-74
2023/01/30 00:24:42;;;;;;;24.50;6.10;;;6.80;99.90;;;;;;5093159;28;20048;-75
2023/01/30 00:27:08;;;;;;;18.57;6.30;;;6.80;99.90;;;;;;5093340;28;20369;-74
2023/01/30 00:29:34;;;;;;;18.23;7.00;;;6.80;99.90;;;;;;5093209;28;20044;-74
2023/01/30 00:31:59;;;;;;;21.80;6.80;;;6.80;99.90;;;;;;5092943;28;20151;-74
2023/01/30 00:34:25;;;;;;;20.60;7.27;;;6.80;99.90;;;;;;5092306;28;20056;-74
2023/01/30 00:36:51;;;;;;;15.70;6.57;;;6.80;99.90;;;;;;5092587;28;20055;-74
2023/01/30 00:39:16;;;;;;;15.63;7.30;;;6.80;99.90;;;;;;5092247;28;20044;-74
2023/01/30 00:47:11;;;;;;;18.35;6.93;;;6.80;99.90;;;;;;5093264;28;20071;-73
2023/01/30 00:49:37;;;;;;;25.20;6.37;;;6.70;99.90;;;;;;5092968;28;20083;-74
2023/01/30 00:52:03;;;;;;;21.97;7.43;;;6.70;99.90;;;;;;5091462;28;20580;-74
2023/01/30 00:54:29;;;;;;;17.13;6.15;;;6.70;99.90;;;;;;5074807;28;20468;-73
2023/01/30 00:56:55;;;;;;;25.00;8.20;;;6.70;99.90;;;;;;5092663;28;20130;-74
2023/01/30 00:59:21;;;;;;;20.53;6.77;;;6.70;99.90;;;;;;5093252;28;20495;-73
2023/01/30 01:01:46;;;;;;;22.60;6.80;;;6.70;99.90;;;;;;5095858;28;20101;-74
2023/01/30 01:04:12;;;;;;;28.47;7.33;;;6.70;99.90;;;;;;5097091;28;20083;-73
2023/01/30 01:06:38;;;;;;;21.53;6.63;;;6.70;99.90;;;;;;5096264;28;20039;-72
2023/01/30 01:09:04;;;;;;;20.43;6.83;;;6.70;99.90;;;;;;5096796;28;20472;-73
2023/01/30 01:11:30;;;;;;;21.10;7.25;;;6.70;99.90;;;;;;5097142;28;20051;-72
2023/01/30 01:13:58;;;;;;;20.87;7.37;;;6.70;99.90;;;;;;5095694;28;20393;-72
2023/01/30 01:16:26;;;;;;;21.83;6.60;;;6.70;99.90;;;;;;5097074;28;20356;-73
2023/01/30 01:18:53;;;;;;;24.30;7.43;;;6.70;99.90;;;;;;5096594;28;20075;-73
2023/01/30 01:21:20;;;;;;;15.15;6.97;;;6.70;99.90;;;;;;5096773;28;20040;-73
2023/01/30 01:23:51;;;;;;;14.57;6.43;;;6.70;99.90;;;;;;5096786;28;20044;-72
2023/01/30 01:26:16;;;;;;;18.30;6.72;;;6.70;99.90;;;;;;5096545;28;20804;-73
2023/01/30 01:28:42;;;;;;;20.70;7.27;;;6.80;99.90;;;;;;5095469;28;20047;-73
2023/01/30 01:31:12;;;;;;;20.77;7.57;;;6.70;99.90;;;;;;5096298;28;20051;-73
2023/01/30 01:33:38;;;;;;;22.33;7.63;;;6.70;99.90;;;;;;5096775;28;20044;-73
2023/01/30 01:36:05;;;;;;;20.20;7.37;;;6.70;99.90;;;;;;5096191;28;20416;-73
2023/01/30 01:38:31;;;;;;;22.15;7.47;;;6.70;99.90;;;;;;5096609;28;20044;-73
2023/01/30 01:41:08;;;;;;;25.02;8.75;;;6.80;99.90;;;;;;5096267;28;20049;-73
2023/01/30 01:44:00;;;;;;;25.17;7.97;;;6.80;99.90;;;;;;5095706;28;20051;-73
2023/01/30 01:46:31;;;;;;;24.47;7.73;;;6.80;99.90;;;;;;5096633;28;20282;-73
2023/01/30 01:49:01;;;;;;;29.23;8.20;;;6.90;99.90;;;;;;5096094;28;20285;-74
2023/01/30 01:51:37;;;;;;;17.70;7.18;;;6.80;99.90;;;;;;5096113;28;20051;-73
2023/01/30 01:54:09;;;;;;;21.45;6.85;;;6.80;99.90;;;;;;5096028;28;20048;-74
2023/01/30 01:56:39;;;;;;;28.58;8.57;;;6.80;99.90;;;;;;5094981;28;20044;-73
2023/01/30 01:59:13;;;;;;;32.60;6.73;;;6.80;99.90;;;;;;5095821;28;20044;-74
2023/01/30 02:01:38;;;;;;;30.03;8.30;;;6.80;99.90;;;;;;5096135;28;20270;-74
2023/01/30 02:04:08;;;;;;;29.77;8.03;;;6.80;99.90;;;;;;5095774;28;20331;-74
2023/01/30 02:06:36;;;;;;;30.87;7.90;;;6.80;99.90;;;;;;5095104;28;20381;-73
2023/01/30 02:09:07;;;;;;;24.73;6.65;;;6.80;99.90;;;;;;5095650;28;20290;-74
2023/01/30 02:11:41;;;;;;;34.22;9.13;;;6.80;99.90;;;;;;5094774;28;20127;-73
2023/01/30 02:14:08;;;;;;;34.40;7.95;;;6.80;99.90;;;;;;5095686;28;20094;-73
2023/01/30 02:16:36;;;;;;;33.13;7.27;;;6.90;99.90;;;;;;5095763;28;20044;-72
2023/01/30 02:19:02;;;;;;;30.77;8.32;;;6.90;99.90;;;;;;5095485;28;20290;-74
2023/01/30 02:21:46;;;;;;;33.30;7.00;;;6.90;99.90;;;;;;5095702;28;20048;-73
2023/01/30 02:24:11;;;;;;;30.90;6.55;;;6.90;99.90;;;;;;5095391;28;20040;-74
2023/01/30 02:26:55;;;;;;;32.57;7.73;;;6.90;99.90;;;;;;5095763;28;20121;-73
2023/01/30 02:30:11;;;;;;;28.15;6.75;;;6.90;99.90;;;;;;5095795;28;20051;-74
2023/01/30 02:32:42;;;;;;;27.55;6.18;;;6.90;99.90;;;;;;5095696;28;20044;-74
2023/01/30 02:35:36;;;;;;;33.75;7.03;;;6.90;99.90;;;;;;5095155;28;20040;-74
2023/01/30 02:38:18;;;;;;;32.65;6.85;;;7.00;99.90;;;;;;5093951;28;20492;-74
2023/01/30 02:41:06;;;;;;;28.08;6.28;;;6.90;99.90;;;;;;5095512;28;20494;-74
2023/01/30 02:43:35;;;;;;;32.33;5.90;;;7.00;99.90;;;;;;5095288;28;20044;-73
2023/01/30 02:46:22;;;;;;;30.92;6.45;;;6.90;99.90;;;;;;5094874;28;20048;-74
2023/01/30 02:48:56;;;;;;;27.35;6.07;;;7.00;99.90;;;;;;5095151;28;20172;-74
2023/01/30 02:51:35;;;;;;;28.93;5.97;;;7.00;99.90;;;;;;5095302;28;20058;-74
2023/01/30 02:54:01;;;;;;;29.05;5.70;;;7.00;99.90;;;;;;5093505;28;20286;-74
2023/01/30 02:56:27;;;;;;;25.73;5.83;;;7.00;99.90;;;;;;5094989;28;20392;-74
2023/01/30 02:59:04;;;;;;;40.63;6.60;;;7.00;99.90;;;;;;5094742;28;20399;-73
2023/01/30 03:01:47;;;;;;;28.90;5.95;;;7.00;99.90;;;;;;5094957;28;20044;-73
2023/01/30 03:04:40;;;;;;;32.17;6.50;;;7.00;99.90;;;;;;5094671;28;20044;-74
2023/01/30 03:07:05;;;;;;;23.93;5.83;;;7.00;99.90;;;;;;5094653;28;20044;-75
2023/01/30 03:09:40;;;;;;;31.10;5.70;;;7.00;99.90;;;;;;5094652;28;20339;-73
2023/01/30 03:12:06;;;;;;;30.50;6.13;;;7.00;99.90;;;;;;5094512;28;20044;-74
2023/01/30 03:14:59;;;;;;;29.97;6.63;;;7.00;99.90;;;;;;5094626;28;20055;-74
2023/01/30 03:17:27;;;;;;;27.63;5.53;;;6.90;99.90;;;;;;5094568;28;20492;-73
2023/01/30 03:19:54;;;;;;;30.43;5.67;;;6.90;99.90;;;;;;5093568;28;20290;-74
2023/01/30 03:22:21;;;;;;;31.90;6.07;;;6.90;99.90;;;;;;5093545;28;20290;-74
2023/01/30 03:24:48;;;;;;;22.50;5.50;;;6.90;99.90;;;;;;5094442;28;20048;-73
2023/01/30 03:27:13;;;;;;;28.23;4.70;;;6.80;99.90;;;;;;5076304;28;20055;-74
2023/01/30 03:29:39;;;;;;;31.07;5.07;;;6.80;99.90;;;;;;5094333;28;20642;-73
2023/01/30 03:32:06;;;;;;;26.90;5.10;;;6.70;99.90;;;;;;5094045;28;20048;-74
2023/01/30 03:34:31;;;;;;;28.55;5.05;;;6.70;99.90;;;;;;5094232;28;20055;-74
2023/01/30 03:36:57;;;;;;;26.07;5.57;;;6.70;99.90;;;;;;5092574;28;20048;-74
2023/01/30 03:39:24;;;;;;;20.80;4.60;;;6.70;99.90;;;;;;5093942;28;20109;-74
2023/01/30 03:41:50;;;;;;;22.55;4.47;;;6.70;99.90;;;;;;5094150;28;20044;-74
2023/01/30 03:44:16;;;;;;;24.27;5.13;;;6.70;99.90;;;;;;5093854;28;20416;-75
2023/01/30 03:46:42;;;;;;;28.23;4.43;;;6.70;99.90;;;;;;5092895;28;20131;-74
2023/01/30 03:49:08;;;;;;;20.93;4.70;;;6.60;99.90;;;;;;5093892;28;20498;-75
2023/01/30 03:51:33;;;;;;;25.03;4.77;;;6.60;99.90;;;;;;5093131;28;20044;-75
2023/01/30 03:53:59;;;;;;;21.80;4.47;;;6.60;99.90;;;;;;5094040;28;20485;-74
2023/01/30 03:56:25;;;;;;;24.67;4.83;;;6.60;99.90;;;;;;5093777;28;20180;-74
2023/01/30 03:58:51;;;;;;;27.93;4.97;;;6.50;99.90;;;;;;5094080;28;20051;-74
2023/01/30 04:01:17;;;;;;;29.90;5.70;;;6.50;99.90;;;;;;5093603;28;20507;-75
2023/01/30 04:03:42;;;;;;;26.23;4.43;;;6.50;99.90;;;;;;5093755;28;20050;-75
2023/01/30 04:06:08;;;;;;;25.03;5.07;;;6.50;99.90;;;;;;5093629;28;20044;-75
2023/01/30 04:08:34;;;;;;;31.73;5.63;;;6.50;99.90;;;;;;5093691;28;20154;-75
2023/01/30 04:10:59;;;;;;;25.97;5.03;;;6.50;99.90;;;;;;5092502;28;20048;-75
2023/01/30 04:13:25;;;;;;;28.63;5.80;;;6.50;99.90;;;;;;5093443;28;20507;-74
2023/01/30 04:15:51;;;;;;;34.17;4.67;;;6.50;99.90;;;;;;5093606;28;20040;-74
2023/01/30 04:18:17;;;;;;;31.58;4.78;;;6.40;99.90;;;;;;5092284;28;20055;-75
2023/01/30 04:20:43;;;;;;;26.07;4.60;;;6.40;99.90;;;;;;5093767;28;20035;-74
2023/01/30 04:23:08;;;;;;;26.17;4.70;;;6.40;99.90;;;;;;5092113;28;20052;-75
2023/01/30 04:25:34;;;;;;;34.03;6.13;;;6.40;99.90;;;;;;5092506;28;20044;-75
2023/01/30 04:28:00;;;;;;;30.50;5.77;;;6.40;99.90;;;;;;5093392;28;20044;-75
2023/01/30 04:30:25;;;;;;;33.83;5.33;;;6.40;99.90;;;;;;5091874;28;20105;-75
2023/01/30 04:32:51;;;;;;;30.90;5.33;;;6.30;99.90;;;;;;5092340;28;20079;-75
2023/01/30 04:35:17;;;;;;;31.73;5.87;;;6.30;99.90;;;;;;5092020;28;20044;-75
2023/01/30 04:37:43;;;;;;;31.50;5.63;;;6.30;99.90;;;;;;5092265;28;20056;-75
2023/01/30 04:40:09;;;;;;;31.63;5.77;;;6.20;99.90;;;;;;5093186;28;20123;-76
2023/01/30 04:42:35;;;;;;;28.35;5.05;;;6.20;99.90;;;;;;5092287;28;20048;-75
2023/01/30 04:45:00;;;;;;;33.47;5.07;;;6.20;99.90;;;;;;5093104;28;20066;-75
2023/01/30 04:47:26;;;;;;;24.20;4.13;;;6.20;99.90;;;;;;5091835;28;20551;-76
2023/01/30 04:49:52;;;;;;;25.80;6.33;;;6.20;99.90;;;;;;5093029;28;20102;-75
2023/01/30 04:52:17;;;;;;;26.50;4.67;;;6.20;99.90;;;;;;5092841;28;20062;-76
2023/01/30 04:54:43;;;;;;;27.30;5.43;;;6.20;99.90;;;;;;5093092;28;20085;-75
2023/01/30 04:57:09;;;;;;;32.57;5.87;;;6.10;99.90;;;;;;5092139;28;20055;-75
2023/01/30 04:59:34;;;;;;;29.00;5.40;;;6.10;99.90;;;;;;5091733;28;20541;-75
2023/01/30 05:02:00;;;;;;;27.13;6.00;;;6.10;99.90;;;;;;5093077;28;20130;-75
2023/01/30 05:04:26;;;;;;;34.63;5.50;;;6.10;99.90;;;;;;5091375;28;20137;-75
2023/01/30 05:06:51;;;;;;;28.83;5.23;;;6.10;99.90;;;;;;5092632;28;20091;-75
2023/01/30 05:09:17;;;;;;;27.37;4.73;;;6.10;99.90;;;;;;5092668;28;20040;-76
2023/01/30 05:11:43;;;;;;;24.70;4.67;;;6.10;99.90;;;;;;5093007;28;20043;-75
2023/01/30 05:14:08;;;;;;;29.60;4.60;;;6.10;99.90;;;;;;5092086;28;20427;-74
2023/01/30 05:16:34;;;;;;;30.97;5.67;;;6.00;99.90;;;;;;5092512;28;20051;-75
2023/01/30 05:19:00;;;;;;;31.60;5.07;;;6.10;99.90;;;;;;5092040;28;20076;-74
2023/01/30 05:21:27;;;;;;;31.43;6.50;;;6.10;99.90;;;;;;5092538;28;20371;-75
2023/01/30 05:23:54;;;;;;;23.90;4.75;;;6.00;99.90;;;;;;5093033;28;20481;-74
2023/01/30 05:26:20;;;;;;;27.30;5.53;;;6.00;99.90;;;;;;5092429;28;20059;-75
2023/01/30 05:28:53;;;;;;;32.88;5.95;;;6.00;99.90;;;;;;5092684;28;20391;-74
2023/01/30 05:31:19;;;;;;;32.67;4.85;;;6.00;99.90;;;;;;5092271;28;20054;-74
2023/01/30 05:33:47;;;;;;;28.77;4.45;;;5.90;99.90;;;;;;5092586;28;20052;-74
2023/01/30 05:36:16;;;;;;;34.33;4.97;;;5.90;99.90;;;;;;5091133;28;20058;-74
2023/01/30 05:38:43;;;;;;;33.22;5.07;;;5.90;99.90;;;;;;5092620;28;20054;-74
2023/01/30 05:41:10;;;;;;;31.80;5.22;;;5.90;99.90;;;;;;5092868;28;20121;-74
2023/01/30 05:43:36;;;;;;;36.55;5.88;;;5.90;99.90;;;;;;5092321;28;20048;-74
2023/01/30 05:46:04;;;;;;;36.53;5.33;;;5.90;99.90;;;;;;5094015;28;20177;-74
2023/01/30 05:48:31;;;;;;;31.63;5.93;;;5.90;99.90;;;;;;5096086;28;20139;-74
2023/01/30 05:50:58;;;;;;;30.30;5.55;;;5.90;99.90;;;;;;5096347;28;20119;-74
2023/01/30 05:53:26;;;;;;;29.30;5.15;;;5.80;99.90;;;;;;5095928;28;20044;-74
2023/01/30 05:56:00;;;;;;;28.88;5.63;;;5.90;99.90;;;;;;5095944;28;20503;-74
2023/01/30 05:58:27;;;;;;;38.35;5.88;;;5.90;99.90;;;;;;5096306;28;20499;-75
2023/01/30 06:00:53;;;;;;;26.27;4.45;;;5.90;99.90;;;;;;5096413;28;20407;-75
2023/01/30 06:03:19;;;;;;;35.10;5.47;;;5.90;99.90;;;;;;5095920;28;20040;-78
2023/01/30 06:05:44;;;;;;;24.83;5.10;;;6.00;99.90;;;;;;5096359;28;20079;-75
2023/01/30 06:08:10;;;;;;;30.60;5.33;;;6.00;99.90;;;;;;5096152;28;20052;-74
2023/01/30 06:10:36;;;;;;;28.73;4.20;;;6.00;99.90;;;;;;5094399;28;20090;-75
2023/01/30 06:13:02;;;;;;;27.40;4.70;;;6.10;99.90;;;;;;5095846;28;20105;-75
2023/01/30 06:15:27;;;;;;;30.70;5.50;;;6.10;99.90;;;;;;5095571;28;20104;-76
2023/01/30 06:17:53;;;;;;;38.30;6.43;;;6.10;99.90;;;;;;5077652;28;20048;-75
2023/01/30 06:20:19;;;;;;;33.83;4.77;;;6.10;99.90;;;;;;5096005;28;20044;-75
2023/01/30 06:22:46;;;;;;;30.30;5.32;;;6.10;99.90;;;;;;5095223;28;20043;-76
2023/01/30 06:25:12;;;;;;;28.42;5.30;;;6.10;99.90;;;;;;5095609;28;20036;-74
2023/01/30 06:27:37;;;;;;;31.43;6.30;;;6.10;99.90;;;;;;5094379;28;20052;-74
2023/01/30 06:30:04;;;;;;;28.87;5.00;;;6.10;99.90;;;;;;5095502;28;20391;-75
2023/01/30 06:32:29;;;;;;;31.50;4.82;;;6.10;99.90;;;;;;5095235;28;20070;-75
2023/01/30 06:34:55;;;;;;;27.70;5.07;;;6.10;99.90;;;;;;5095662;28;20044;-76
2023/01/30 06:37:21;;;;;;;32.07;5.10;;;6.10;99.90;;;;;;5093763;28;20052;-74
2023/01/30 06:39:46;;;;;;;25.33;4.83;;;6.10;99.90;;;;;;5095146;28;20105;-75
2023/01/30 06:42:12;;;;;;;29.63;4.70;;;6.10;99.90;;;;;;5095381;28;20040;-75
2023/01/30 06:44:38;;;;;;;31.60;4.70;;;6.10;99.90;;;;;;5077258;28;20372;-73
2023/01/30 06:47:03;;;;;;;37.63;5.43;;;6.10;99.90;;;;;;5094119;28;20133;-74
2023/01/30 06:49:29;;;;;;;38.27;6.37;;;6.10;99.90;;;;;;5093843;28;20051;-74
2023/01/30 06:51:55;;;;;;;28.80;6.30;;;6.10;99.90;;;;;;5093488;28;20097;-74
2023/01/30 06:54:23;;;;;;;27.00;5.00;;;6.10;99.90;;;;;;5093927;28;20054;-74
2023/01/30 06:56:49;;;;;;;31.30;5.25;;;6.10;99.90;;;;;;5095056;28;20052;-74
2023/01/30 06:59:15;;;;;;;35.17;5.70;;;6.10;99.90;;;;;;5094601;28;20139;-74
2023/01/30 07:01:40;;;;;;;26.17;4.83;;;6.10;99.90;;;;;;5093758;28;20078;-75
2023/01/30 07:04:06;;;;;;;25.63;4.63;;;6.10;99.90;;;;;;5095029;28;20044;-74
2023/01/30 07:06:32;;;;;;;30.80;5.20;;;6.10;99.90;;;;;;5094801;28;20044;-75
2023/01/30 07:08:57;;;;;;;30.67;5.80;;;6.10;99.90;;;;;;5095066;28;20044;-74
2023/01/30 07:11:26;;;;;;;34.17;5.53;;;6.10;99.90;;;;;;5094800;28;20476;-74
2023/01/30 07:13:52;;;;;;;27.05;6.32;;;6.10;99.90;;;;;;5094875;28;20232;-74
2023/01/30 07:16:17;;;;;;;30.03;5.63;;;6.10;99.90;;;;;;5094751;28;20044;-74
2023/01/30 07:18:43;;;;;;;28.70;5.10;;;6.10;99.90;;;;;;5094582;28;20157;-75
2023/01/30 07:21:09;;;;;;;31.60;4.97;;;6.10;99.90;;;;;;5094715;28;20043;-74
2023/01/30 07:23:35;;;;;;;34.80;5.83;;;6.10;99.90;;;;;;5094534;28;20083;-74
2023/01/30 07:26:04;;;;;;;30.63;5.73;;;6.20;99.90;;;;;;5094590;28;20066;-74
2023/01/30 07:28:30;;;;;;;32.00;6.47;;;6.10;99.90;;;;;;5093210;28;20048;-74
2023/01/30 07:30:59;;;;;;;38.67;5.80;;;6.20;99.90;;;;;;5094410;28;20120;-74
2023/01/30 07:33:25;;;;;;;30.10;5.72;;;6.20;99.90;;;;;;5093360;28;20044;-74
2023/01/30 07:35:51;;;;;;;29.97;6.13;;;6.20;99.90;;;;;;5094025;28;20102;-74
2023/01/30 07:38:16;;;;;;;29.33;5.47;;;6.20;99.90;;;;;;5094460;28;20394;-74
2023/01/30 07:40:42;;;;;;;35.17;5.30;;;6.20;99.90;;;;;;5094156;28;20040;-74
2023/01/30 07:43:11;;;;;;;33.27;7.13;;;6.20;99.90;;;;;;5094363;28;20051;-74
2023/01/30 07:45:45;;;;;;;35.03;5.53;;;6.20;99.90;;;;;;5093805;28;20484;-74
2023/01/30 07:48:15;;;;;;;34.70;5.47;;;6.20;99.90;;;;;;5093564;28;20052;-74
2023/01/30 07:50:41;;;;;;;30.63;5.07;;;6.20;99.90;;;;;;5093865;28;20160;-74
2023/01/30 07:53:09;;;;;;;38.40;6.93;;;6.20;99.90;;;;;;5094376;28;20047;-74
2023/01/30 07:55:35;;;;;;;36.67;6.40;;;6.20;99.90;;;;;;5094095;28;20046;-74
2023/01/30 07:58:01;;;;;;;29.60;6.50;;;6.20;99.90;;;;;;5093697;28;20040;-73
2023/01/30 08:00:27;;;;;;;27.38;5.32;;;6.20;99.90;;;;;;5093985;28;20040;-74
2023/01/30 08:02:53;;;;;;;36.10;5.40;;;6.30;99.90;;;;;;5092504;28;20089;-74
2023/01/30 08:05:19;;;;;;;31.43;5.93;;;6.30;99.90;;;;;;5093911;28;20097;-74
2023/01/30 08:07:46;;;;;;;38.90;6.53;;;6.30;99.90;;;;;;5092472;28;20055;-73
2023/01/30 08:10:12;;;;;;;35.80;5.60;;;6.30;99.90;;;;;;5093679;28;20066;-74
2023/01/30 08:12:39;;;;;;;43.42;6.53;;;6.30;99.90;;;;;;5093441;28;20048;-74
2023/01/30 08:15:06;;;;;;;30.95;5.60;;;6.30;99.90;;;;;;5093651;28;20052;-74
2023/01/30 08:17:32;;;;;;;31.52;5.45;;;6.30;99.90;;;;;;5093610;28;20055;-74
2023/01/30 08:19:58;;;;;;;37.25;6.10;;;6.40;99.90;;;;;;5094008;28;20044;-75
2023/01/30 08:22:24;;;;;;;31.07;5.40;;;6.30;99.90;;;;;;5092603;28;20047;-73
2023/01/30 08:24:50;;;;;;;31.70;5.33;;;6.40;99.90;;;;;;5093374;28;20059;-74
2023/01/30 08:27:16;;;;;;;29.70;5.27;;;6.40;99.90;;;;;;5075949;28;20044;-74
2023/01/30 08:29:43;;;;;;;32.35;5.53;;;6.40;99.90;;;;;;5093242;28;20040;-74
2023/01/30 08:32:09;;;;;;;39.30;6.72;;;6.40;99.90;;;;;;5093464;28;20148;-74
2023/01/30 08:34:35;;;;;;;26.13;5.30;;;6.50;99.90;;;;;;5093259;28;20148;-80
2023/01/30 08:37:01;;;;;;;30.57;6.10;;;6.50;99.90;;;;;;5093329;28;20569;-74
2023/01/30 08:39:27;;;;;;;35.80;6.20;;;6.50;99.90;;;;;;5093339;28;20056;-74
2023/01/30 08:41:53;;;;;;;35.20;5.53;;;6.50;99.90;;;;;;5092013;28;20152;-74
2023/01/30 08:44:18;;;;;;;34.50;6.17;;;6.50;99.90;;;;;;5093464;28;20465;-74
2023/01/30 08:46:44;;;;;;;35.57;6.53;;;6.60;99.90;;;;;;5093106;28;20067;-74
2023/01/30 08:49:10;;;;;;;31.97;5.53;;;6.60;99.90;;;;;;5092102;28;20139;-74
2023/01/30 08:51:36;;;;;;;33.90;6.00;;;6.60;99.90;;;;;;5093118;28;20040;-74
2023/01/30 08:54:02;;;;;;;26.63;4.90;;;6.70;99.90;;;;;;5093232;28;20070;-74
2023/01/30 08:56:28;;;;;;;34.90;6.30;;;6.70;99.90;;;;;;5092002;28;20044;-74
2023/01/30 08:58:53;;;;;;;35.60;6.53;;;6.80;99.90;;;;;;5092668;28;20052;-74
2023/01/30 09:01:19;;;;;;;29.10;5.33;;;6.80;99.90;;;;;;5092164;28;20051;-74
2023/01/30 09:03:45;;;;;;;27.40;5.28;;;6.90;99.90;;;;;;5092931;28;20043;-75
2023/01/30 09:06:11;;;;;;;33.90;5.80;;;6.80;99.90;;;;;;5093172;28;20051;-74
2023/01/30 09:08:37;;;;;;;27.90;5.73;;;6.80;99.90;;;;;;5093099;28;20476;-74
2023/01/30 09:11:04;;;;;;;39.13;6.67;;;6.90;99.90;;;;;;5092796;28;20468;-74
2023/01/30 09:13:30;;;;;;;31.23;5.47;;;6.80;99.90;;;;;;5092084;28;20051;-74
2023/01/30 09:15:57;;;;;;;29.92;6.22;;;6.80;99.90;;;;;;5092771;28;20044;-74
2023/01/30 09:18:24;;;;;;;28.08;4.93;;;6.90;99.90;;;;;;5092973;28;20040;-74
2023/01/30 09:20:50;;;;;;;31.58;5.78;;;7.00;99.90;;;;;;5094006;28;20150;-74
2023/01/30 09:23:16;;;;;;;25.95;5.68;;;7.10;99.90;;;;;;5097031;28;20044;-74
2023/01/30 09:25:44;;;;;;;34.53;5.50;;;7.00;99.90;;;;;;5096785;28;20527;-76
2023/01/30 09:28:10;;;;;;;34.28;5.50;;;7.10;99.90;;;;;;5097179;28;20113;-74
2023/01/30 09:30:36;;;;;;;30.33;7.43;;;7.00;99.90;;;;;;5096896;28;20044;-74
2023/01/30 09:33:01;;;;;;;38.20;7.17;;;7.00;99.90;;;;;;5096587;28;20508;-74
2023/01/30 09:35:27;;;;;;;40.17;8.13;;;7.00;99.90;;;;;;5096516;28;20083;-74
2023/01/30 09:37:53;;;;;;;43.73;6.90;;;7.00;99.90;;;;;;5096522;28;20051;-74
2023/01/30 09:40:31;;;;;;;45.50;6.27;;;7.00;99.90;;;;;;5095683;28;20093;-74
2023/01/30 09:43:50;;;;;;;40.03;8.25;;;7.00;99.90;;;;;;5096440;28;20044;-74
2023/01/30 09:46:35;;;;;;;28.45;6.03;;;7.00;99.90;;;;;;5096556;28;20156;-74
2023/01/30 09:49:12;;;;;;;36.45;7.68;;;7.00;99.90;;;;;;5095372;28;20060;-74
2023/01/30 09:51:56;;;;;;;37.20;7.68;;;7.10;99.90;;;;;;5096415;28;20040;-74
2023/01/30 09:54:27;;;;;;;31.73;6.30;;;7.00;99.90;;;;;;5096202;28;20381;-74
2023/01/30 09:57:15;;;;;;;38.65;6.55;;;7.10;99.90;;;;;;5096157;28;20275;-75
2023/01/30 09:59:56;;;;;;;32.10;5.53;;;7.10;99.90;;;;;;5096490;28;20051;-74
2023/01/30 10:02:40;;;;;;;33.15;5.45;;;7.20;99.90;;;;;;5096583;28;20052;-74
2023/01/30 10:05:06;;;;;;;30.30;6.15;;;7.20;99.90;;;;;;5096046;28;20052;-74
2023/01/30 10:07:41;;;;;;;31.87;5.43;;;7.30;99.90;;;;;;5096111;28;20044;-74
2023/01/30 10:10:35;;;;;;;32.65;7.35;;;7.30;99.90;;;;;;5095878;28;20294;-74
2023/01/30 10:13:24;;;;;;;23.25;4.93;;;7.40;99.90;;;;;;5095895;28;20136;-74
2023/01/30 10:16:03;;;;;;;26.03;5.40;;;7.40;99.90;;;;;;5094978;28;20587;-74
2023/01/30 10:18:29;;;;;;;33.13;6.63;;;7.50;99.90;;;;;;5095985;28;20288;-74
2023/01/30 10:21:23;;;;;;;31.23;5.70;;;7.50;99.90;;;;;;5095701;28;20126;-74
2023/01/30 10:24:04;;;;;;;29.50;6.37;;;7.60;99.90;;;;;;5079760;28;20048;-75
2023/01/30 10:26:30;;;;;;;41.20;7.88;;;7.60;99.90;;;;;;5095892;28;20305;-74
2023/01/30 10:29:07;;;;;;;35.43;6.23;;;7.70;99.90;;;;;;5095545;28;20052;-75
2023/01/30 10:31:44;;;;;;;33.10;5.33;;;7.70;99.90;;;;;;5095420;28;20302;-74
2023/01/30 10:34:24;;;;;;;30.40;5.55;;;7.70;99.90;;;;;;5094741;28;20686;-75
2023/01/30 10:36:59;;;;;;;36.73;7.17;;;7.70;99.90;;;;;;5095383;28;20056;-74
2023/01/30 10:39:40;;;;;;;35.67;7.15;;;7.70;99.90;;;;;;5095527;28;20286;-74
2023/01/30 10:42:38;;;;;;;35.60;7.00;;;7.80;99.90;;;;;;5095283;28;20480;-74
2023/01/30 10:45:39;;;;;;;30.33;5.30;;;7.80;99.90;;;;;;5094765;28;20650;-74
2023/01/30 10:48:31;;;;;;;33.97;6.47;;;7.70;99.90;;;;;;5081304;28;20839;-73
2023/01/30 10:51:11;;;;;;;27.80;6.17;;;7.50;99.90;;;;;;5095080;28;20387;-73
2023/01/30 10:53:45;;;;;;;28.80;6.13;;;7.40;99.90;;;;;;5093990;28;20762;-72
2023/01/30 10:56:18;;;;;;;29.27;4.97;;;7.10;99.90;;;;;;5094942;28;20324;-73
2023/01/30 10:58:57;;;;;;;15.63;2.93;;;7.10;99.90;;;;;;5094935;28;20770;-73
2023/01/30 11:01:39;;;;;;;17.25;3.28;;;7.00;99.90;;;;;;5095361;28;20366;-73
2023/01/30 11:04:30;;;;;;;13.35;2.40;;;7.00;99.90;;;;;;5094950;28;20044;-73
2023/01/30 11:06:58;;;;;;;16.77;2.70;;;7.00;99.90;;;;;;5093657;28;20058;-73
2023/01/30 11:09:46;;;;;;;15.68;3.45;;;7.00;99.90;;;;;;5094937;28;20283;-73
2023/01/30 11:12:13;;;;;;;20.83;4.20;;;6.90;99.90;;;;;;5094761;28;20059;-74
2023/01/30 11:14:58;;;;;;;19.38;4.45;;;7.00;99.90;;;;;;5094841;28;20274;-73
2023/01/30 11:17:32;;;;;;;19.52;4.07;;;7.10;99.90;;;;;;5095144;28;20052;-73
2023/01/30 11:20:03;;;;;;;20.27;4.23;;;7.10;99.90;;;;;;5094493;28;20051;-74
2023/01/30 11:22:30;;;;;;;20.35;4.63;;;7.20;99.90;;;;;;5094927;28;20618;-74
2023/01/30 11:25:17;;;;;;;23.35;4.93;;;7.40;99.90;;;;;;5094445;28;20043;-74
2023/01/30 11:27:50;;;;;;;29.42;4.80;;;7.40;99.90;;;;;;5094604;28;20040;-73
2023/01/30 11:30:18;;;;;;;27.95;4.43;;;7.50;99.90;;;;;;5093174;28;20468;-73
2023/01/30 11:32:47;;;;;;;18.30;4.07;;;7.40;99.90;;;;;;5094516;28;20047;-73
2023/01/30 11:35:29;;;;;;;11.80;2.63;;;7.30;99.90;;;;;;5094295;28;20043;-73
2023/01/30 11:38:12;;;;;;;10.98;2.58;;;7.20;99.90;;;;;;5093748;28;20294;-75
2023/01/30 11:40:41;;;;;;;15.73;2.87;;;7.10;99.90;;;;;;5094432;28;20487;-73
2023/01/30 11:43:14;;;;;;;13.33;2.70;;;7.10;99.90;;;;;;5093993;28;20754;-74
2023/01/30 11:45:46;;;;;;;15.43;2.37;;;7.00;99.90;;;;;;5094427;28;20278;-74
2023/01/30 11:48:19;;;;;;;12.52;2.10;;;7.00;99.90;;;;;;5094100;28;20285;-73
2023/01/30 11:50:48;;;;;;;11.73;2.30;;;6.90;99.90;;;;;;5092985;28;20074;-73
2023/01/30 11:53:37;;;;;;;17.42;2.50;;;6.80;99.90;;;;;;5093966;28;20408;-74
2023/01/30 11:56:14;;;;;;;15.10;2.50;;;6.80;99.90;;;;;;5093970;28;20047;-74
2023/01/30 11:58:45;;;;;;;18.53;2.83;;;6.80;99.90;;;;;;5094287;28;20052;-73
2023/01/30 12:01:12;;;;;;;15.30;2.90;;;6.80;99.90;;;;;;5093942;28;20630;-74
2023/01/30 12:03:57;;;;;;;20.40;3.40;;;6.80;99.90;;;;;;5093941;28;20293;-74
2023/01/30 12:06:32;;;;;;;19.80;3.53;;;6.90;99.90;;;;;;5093969;28;20087;-74
2023/01/30 12:08:58;;;;;;;33.00;4.38;;;6.90;99.90;;;;;;5093732;28;20559;-78
2023/01/30 12:11:29;;;;;;;28.58;3.97;;;7.00;99.90;;;;;;5093899;28;20082;-74
2023/01/30 12:14:17;;;;;;;27.13;4.37;;;7.00;99.90;;;;;;5093003;28;20054;-74
2023/01/30 12:17:15;;;;;;;26.33;4.53;;;7.10;99.90;;;;;;5092533;28;20282;-74
2023/01/30 12:19:49;;;;;;;22.60;4.15;;;7.20;99.90;;;;;;5093610;28;20827;-74
2023/01/30 12:22:21;;;;;;;15.25;3.42;;;7.30;99.90;;;;;;5093477;28;20048;-74
2023/01/30 12:25:08;;;;;;;22.08;4.55;;;7.40;99.90;;;;;;5093654;28;20086;-74
2023/01/30 12:27:58;;;;;;;20.33;4.10;;;7.40;99.90;;;;;;5093566;28;20044;-74
2023/01/30 12:30:33;;;;;;;20.63;3.70;;;7.50;99.90;;;;;;5093288;28;20510;-74
2023/01/30 12:33:02;;;;;;;19.70;3.47;;;7.40;99.90;;;;;;5093573;28;20396;-74
2023/01/30 12:35:46;;;;;;;21.30;3.10;;;7.40;99.90;;;;;;5093445;28;20047;-74
2023/01/30 12:38:18;;;;;;;21.00;3.58;;;7.40;99.90;;;;;;5093309;28;20274;-74
2023/01/30 12:40:52;;;;;;;26.23;4.17;;;7.40;99.90;;;;;;5093442;28;20036;-73
2023/01/30 12:43:37;;;;;;;21.92;3.75;;;7.40;99.90;;;;;;5093242;28;20286;-74
2023/01/30 12:46:21;;;;;;;21.70;4.55;;;7.40;99.90;;;;;;5093203;28;20051;-74
2023/01/30 12:49:14;;;;;;;19.70;3.60;;;7.40;99.90;;;;;;5093312;28;20492;-74
2023/01/30 12:52:04;;;;;;;20.80;4.53;;;7.40;99.90;;;;;;5093215;28;20616;-74
2023/01/30 12:54:52;;;;;;;23.40;4.80;;;7.40;99.90;;;;;;5093289;28;20047;-74
2023/01/30 12:57:34;;;;;;;16.53;3.50;;;7.40;99.90;;;;;;5092617;28;20278;-74
2023/01/30 13:00:23;;;;;;;23.05;4.13;;;7.40;99.90;;;;;;5093299;28;20339;-74
2023/01/30 13:03:05;;;;;;;22.77;4.53;;;7.40;99.90;;;;;;5093249;28;20047;-74
2023/01/30 13:05:41;;;;;;;29.03;5.27;;;7.40;99.90;;;;;;5091902;28;20270;-74
2023/01/30 13:08:19;;;;;;;28.50;5.38;;;7.40;99.90;;;;;;5092832;28;20281;-74
2023/01/30 13:11:08;;;;;;;27.07;7.23;;;7.50;99.90;;;;;;5092932;28;20048;-74